Time;durP1;ratioP1;P1;durP2;ratioP2;P2;SDS_P1;SDS_P2;PMS_P1;PMS_P2;Temp;Humidity;BMP_temperature;BMP_pressure;BME280_temperature;BME280_humidity;BME280_pressure;Samples;Min_cycle;Max_cycle;Signal;HPM_P1;HPM_P2
2022/02/28 00:00:11;;;;;;;0.10;0.10;;;;;;;4.96;55.88;103123.88;5005535;28;20030;-82
2022/02/28 00:02:37;;;;;;;0.17;0.17;;;;;;;4.91;55.30;103116.63;5003527;28;20023;-83
2022/02/28 00:05:03;;;;;;;0.15;0.15;;;;;;;4.91;55.33;103116.63;5018766;28;20032;-82
2022/02/28 00:07:29;;;;;;;0.47;0.47;;;;;;;4.92;55.36;103113.16;5022854;28;20535;-81
2022/02/28 00:09:56;;;;;;;0.10;0.10;;;;;;;4.93;54.98;103125.47;5027315;28;20033;-82
2022/02/28 00:12:22;;;;;;;0.10;0.10;;;;;;;4.91;54.94;103121.88;5026977;28;20101;-82
2022/02/28 00:14:48;;;;;;;0.10;0.10;;;;;;;4.84;55.70;103126.00;5027293;28;20022;-83
2022/02/28 00:17:14;;;;;;;0.10;0.10;;;;;;;4.76;55.91;103122.16;5014769;28;20465;-82
2022/02/28 00:19:40;;;;;;;0.10;0.10;;;;;;;4.77;55.49;103119.63;5014597;28;20092;-82
2022/02/28 00:22:07;;;;;;;0.10;0.10;;;;;;;4.70;55.79;103114.94;5015062;28;20036;-83
2022/02/28 00:24:33;;;;;;;0.20;0.20;;;;;;;4.61;56.48;103117.16;5015264;28;20117;-81
2022/02/28 00:26:59;;;;;;;0.47;0.47;;;;;;;4.64;55.76;103112.94;5015458;28;20057;-82
2022/02/28 00:29:25;;;;;;;0.20;0.20;;;;;;;4.66;55.41;103120.88;5014801;28;20037;-83
2022/02/28 00:31:52;;;;;;;0.15;0.15;;;;;;;4.61;55.71;103109.28;5014699;28;20496;-83
2022/02/28 00:34:18;;;;;;;0.35;0.35;;;;;;;4.56;56.37;103110.84;5014668;28;20363;-83
2022/02/28 00:36:44;;;;;;;0.10;0.10;;;;;;;4.50;56.72;103115.00;5015208;28;20022;-83
2022/02/28 00:39:11;;;;;;;0.10;0.10;;;;;;;4.53;56.45;103112.47;5015027;28;20030;-83
2022/02/28 00:41:37;;;;;;;0.10;0.10;;;;;;;4.54;56.01;103106.41;5014814;28;20053;-82
2022/02/28 00:44:03;;;;;;;0.20;0.20;;;;;;;4.53;56.30;103115.09;5014779;28;20026;-82
2022/02/28 00:46:29;;;;;;;0.10;0.10;;;;;;;4.53;56.60;103117.75;5014673;28;20041;-83
2022/02/28 00:48:55;;;;;;;0.10;0.10;;;;;;;4.57;56.12;103120.50;5014541;28;20030;-81
2022/02/28 00:51:22;;;;;;;1.65;1.55;;;;;;;4.46;56.86;103112.16;5014466;28;20539;-82
2022/02/28 00:53:48;;;;;;;0.10;0.10;;;;;;;4.49;56.01;103117.56;5014247;28;20034;-82
2022/02/28 00:56:14;;;;;;;0.10;0.10;;;;;;;4.54;56.12;103122.16;5014553;28;20380;-83
2022/02/28 00:58:40;;;;;;;0.10;0.10;;;;;;;4.53;56.00;103127.34;5008871;28;20030;-81
2022/02/28 01:01:06;;;;;;;0.10;0.10;;;;;;;4.51;55.99;103127.31;5014280;28;20374;-82
2022/02/28 01:03:33;;;;;;;0.20;0.20;;;;;;;4.50;55.84;103124.63;5009300;28;20029;-83
2022/02/28 01:05:59;;;;;;;0.10;0.10;;;;;;;4.46;55.95;103128.84;5014100;28;20041;-82
2022/02/28 01:08:25;;;;;;;0.10;0.10;;;;;;;4.44;55.98;103135.75;5014498;28;20056;-83
2022/02/28 01:10:52;;;;;;;0.10;0.10;;;;;;;4.42;55.96;103141.75;5014256;28;20038;-84
2022/02/28 01:13:18;;;;;;;0.10;0.10;;;;;;;4.38;55.94;103136.38;5014506;28;20026;-83
2022/02/28 01:15:45;;;;;;;0.10;0.10;;;;;;;4.35;56.08;103133.63;5014331;28;20069;-83
2022/02/28 01:18:12;;;;;;;0.10;0.10;;;;;;;4.30;56.47;103134.25;5012746;28;20500;-84
2022/02/28 01:20:38;;;;;;;0.10;0.10;;;;;;;4.26;56.22;103140.19;5014470;28;20100;-84
2022/02/28 01:23:14;;;;;;;0.10;0.10;;;;;;;4.25;56.96;103133.16;5013430;28;20038;-82
2022/02/28 01:25:50;;;;;;;0.10;0.10;;;;;;;4.21;56.65;103135.66;5011213;28;20033;-82
2022/02/28 01:28:25;;;;;;;0.10;0.10;;;;;;;4.17;56.97;103133.72;5014188;28;20474;-83
2022/02/28 01:30:59;;;;;;;0.52;0.52;;;;;;;4.11;56.89;103136.09;5014666;28;20026;-83
2022/02/28 01:33:25;;;;;;;0.10;0.10;;;;;;;4.04;57.42;103137.53;5014907;28;20026;-82
2022/02/28 01:35:51;;;;;;;0.30;0.30;;;;;;;4.01;57.01;103131.25;5012292;28;20038;-83
2022/02/28 01:38:17;;;;;;;0.13;0.13;;;;;;;3.98;57.64;103139.00;5008579;28;20109;-82
2022/02/28 01:40:44;;;;;;;0.10;0.10;;;;;;;3.96;57.43;103138.03;5008369;28;20076;-83
2022/02/28 01:43:10;;;;;;;0.17;0.17;;;;;;;3.95;57.03;103138.84;5013138;28;20025;-83
2022/02/28 01:45:36;;;;;;;0.10;0.10;;;;;;;3.93;57.85;103146.66;5012266;28;20045;-82
2022/02/28 01:48:03;;;;;;;0.10;0.10;;;;;;;3.93;57.00;103145.78;5013408;28;20113;-83
2022/02/28 01:50:30;;;;;;;0.20;0.20;;;;;;;3.89;57.62;103143.00;5012815;28;20022;-82
2022/02/28 01:52:56;;;;;;;0.10;0.10;;;;;;;3.88;57.41;103149.06;5012980;28;20034;-83
2022/02/28 01:55:24;;;;;;;0.10;0.10;;;;;;;3.88;57.18;103149.06;5012749;28;20026;-81
2022/02/28 01:57:52;;;;;;;0.10;0.10;;;;;;;3.84;57.47;103144.53;5012543;28;20109;-82
2022/02/28 02:00:21;;;;;;;0.10;0.10;;;;;;;3.84;56.92;103141.91;5012539;28;20032;-81
2022/02/28 02:02:48;;;;;;;0.10;0.10;;;;;;;3.82;57.15;103137.41;5010706;28;20429;-82
2022/02/28 02:05:14;;;;;;;0.10;0.10;;;;;;;3.80;57.17;103137.34;5011877;28;20046;-81
2022/02/28 02:07:40;;;;;;;0.13;0.13;;;;;;;3.79;56.87;103145.13;5012777;28;20037;-81
2022/02/28 02:10:09;;;;;;;0.10;0.10;;;;;;;3.76;57.64;103159.00;5012453;28;20472;-81
2022/02/28 02:12:36;;;;;;;0.20;0.20;;;;;;;3.75;57.31;103146.75;5012195;28;20460;-81
2022/02/28 02:15:04;;;;;;;0.10;0.10;;;;;;;3.73;57.53;103143.16;5012503;28;20046;-83
2022/02/28 02:17:31;;;;;;;0.10;0.10;;;;;;;3.69;57.67;103152.59;5012661;28;20385;-82
2022/02/28 02:19:57;;;;;;;0.10;0.10;;;;;;;3.66;57.55;103143.69;5009714;28;20032;-82
2022/02/28 02:22:23;;;;;;;0.10;0.10;;;;;;;3.65;57.65;103144.50;5012322;28;20084;-81
2022/02/28 02:24:51;;;;;;;0.10;0.10;;;;;;;3.64;57.32;103145.34;5012260;28;20029;-81
2022/02/28 02:27:18;;;;;;;0.20;0.20;;;;;;;3.63;57.24;103147.06;5009367;28;20029;-84
2022/02/28 02:29:44;;;;;;;0.30;0.30;;;;;;;3.62;57.62;103142.66;5012268;28;20437;-79
2022/02/28 02:32:15;;;;;;;0.10;0.10;;;;;;;3.61;57.78;103143.47;5012538;28;20096;-82
2022/02/28 02:34:42;;;;;;;0.10;0.10;;;;;;;3.58;57.43;103147.66;5012233;28;20117;-81
2022/02/28 02:37:09;;;;;;;0.10;0.10;;;;;;;3.55;58.52;103143.19;5012205;28;20026;-82
2022/02/28 02:39:40;;;;;;;0.20;0.20;;;;;;;3.56;58.24;103139.75;5011323;28;20030;-81
2022/02/28 02:42:07;;;;;;;0.10;0.10;;;;;;;3.49;58.19;103141.19;5012104;28;20029;-82
2022/02/28 02:44:34;;;;;;;0.22;0.22;;;;;;;3.47;57.83;103139.34;5011960;28;20029;-82
2022/02/28 02:47:01;;;;;;;0.13;0.13;;;;;;;3.42;58.60;103139.13;5012285;28;20026;-83
2022/02/28 02:49:29;;;;;;;0.10;0.10;;;;;;;3.39;58.05;103139.88;5012516;28;20033;-82
2022/02/28 02:51:55;;;;;;;0.20;0.20;;;;;;;3.34;57.99;103128.28;5014057;28;20081;-82
2022/02/28 02:54:21;;;;;;;0.10;0.10;;;;;;;3.28;58.83;103129.69;5013695;28;20026;-82
2022/02/28 02:56:47;;;;;;;0.95;0.95;;;;;;;3.20;59.09;103122.41;5013871;28;20034;-82
2022/02/28 02:59:14;;;;;;;3.72;3.50;;;;;;;3.19;58.51;103125.84;5012318;28;20034;-82
2022/02/28 03:01:40;;;;;;;0.10;0.10;;;;;;;3.17;58.57;103122.22;5013663;28;20129;-81
2022/02/28 03:04:06;;;;;;;0.20;0.20;;;;;;;3.17;58.50;103118.72;5013422;28;20030;-82
2022/02/28 03:06:34;;;;;;;0.10;0.10;;;;;;;3.17;58.43;103119.63;5013316;28;20026;-81
2022/02/28 03:09:00;;;;;;;0.10;0.10;;;;;;;3.14;58.55;103127.34;5013648;28;20494;-81
2022/02/28 03:11:27;;;;;;;0.20;0.20;;;;;;;3.14;58.43;103129.97;5013453;28;20030;-81
2022/02/28 03:13:53;;;;;;;0.10;0.10;;;;;;;3.12;59.11;103121.13;5012294;28;20061;-82
2022/02/28 03:16:19;;;;;;;0.10;0.10;;;;;;;3.13;58.63;103133.41;5008465;28;20026;-83
2022/02/28 03:18:45;;;;;;;0.77;0.77;;;;;;;3.09;59.18;103118.38;5011709;28;20026;-80
2022/02/28 03:21:11;;;;;;;0.20;0.20;;;;;;;3.08;58.82;103119.19;5011279;28;20397;-77
2022/02/28 03:23:37;;;;;;;0.10;0.10;;;;;;;3.05;59.02;103114.72;5008498;28;20026;-81
2022/02/28 03:26:04;;;;;;;0.10;0.10;;;;;;;3.05;59.08;103125.19;5012127;28;20091;-81
2022/02/28 03:28:30;;;;;;;0.10;0.10;;;;;;;3.04;59.27;103130.31;5009685;28;20021;-82
2022/02/28 03:30:56;;;;;;;0.63;0.63;;;;;;;3.02;58.96;103134.63;5001622;28;20031;-81
2022/02/28 03:33:22;;;;;;;0.20;0.20;;;;;;;3.00;59.10;103129.28;5010363;28;20072;-82
2022/02/28 03:35:49;;;;;;;0.10;0.10;;;;;;;2.98;59.61;103124.78;5012325;28;20037;-82
2022/02/28 03:38:15;;;;;;;0.10;0.10;;;;;;;2.95;59.30;103116.81;5011234;28;20030;-82
2022/02/28 03:40:41;;;;;;;0.28;0.28;;;;;;;2.92;59.37;103123.69;5012453;28;20024;-82
2022/02/28 03:43:07;;;;;;;0.17;0.17;;;;;;;2.91;58.96;103121.00;5011674;28;20116;-83
2022/02/28 03:45:34;;;;;;;0.10;0.10;;;;;;;2.88;58.92;103126.09;5012029;28;20061;-80
2022/02/28 03:48:00;;;;;;;0.20;0.20;;;;;;;2.86;59.04;103126.00;5012224;28;20030;-82
2022/02/28 03:50:26;;;;;;;0.17;0.17;;;;;;;2.83;59.16;103124.94;5012050;28;20026;-83
2022/02/28 03:52:53;;;;;;;0.20;0.20;;;;;;;2.82;59.35;103121.44;5015752;28;20044;-83
2022/02/28 03:55:20;;;;;;;0.13;0.13;;;;;;;2.83;59.01;103123.25;5015423;28;20021;-81
2022/02/28 03:57:47;;;;;;;0.10;0.10;;;;;;;2.83;58.95;103128.47;5016422;28;20026;-81
2022/02/28 04:00:14;;;;;;;0.10;0.10;;;;;;;2.82;59.40;103121.44;5015682;28;20472;-82
2022/02/28 04:02:41;;;;;;;0.20;0.20;;;;;;;2.82;59.58;103129.31;5015593;28;20033;-82
2022/02/28 04:05:08;;;;;;;0.20;0.20;;;;;;;2.80;59.73;103123.06;5015592;28;20103;-82
2022/02/28 04:07:34;;;;;;;0.10;0.10;;;;;;;2.79;60.06;103118.69;5014740;28;20099;-81
2022/02/28 04:10:00;;;;;;;0.10;0.10;;;;;;;2.74;59.86;103123.69;5015050;28;20109;-82
2022/02/28 04:12:27;;;;;;;0.10;0.10;;;;;;;2.70;59.71;103121.72;5013994;28;20147;-82
2022/02/28 04:14:53;;;;;;;0.17;0.17;;;;;;;2.74;59.84;103110.59;5015459;28;20053;-81
2022/02/28 04:17:19;;;;;;;0.20;0.20;;;;;;;2.72;60.18;103116.59;5012841;28;20381;-82
2022/02/28 04:19:45;;;;;;;0.25;0.25;;;;;;;2.72;59.81;103113.97;5015444;28;20521;-82
2022/02/28 04:22:12;;;;;;;0.10;0.10;;;;;;;2.62;60.12;103112.63;5012739;28;20123;-82
2022/02/28 04:24:38;;;;;;;0.20;0.20;;;;;;;2.61;60.21;103115.16;5015077;28;20117;-82
2022/02/28 04:27:04;;;;;;;0.20;0.20;;;;;;;2.64;60.20;103110.06;5015162;28;20613;-79
2022/02/28 04:29:30;;;;;;;0.10;0.10;;;;;;;2.58;60.01;103110.69;5015174;28;20026;-79
2022/02/28 04:31:57;;;;;;;0.10;0.10;;;;;;;2.61;59.83;103102.09;5015216;28;20037;-82
2022/02/28 04:34:23;;;;;;;0.17;0.17;;;;;;;2.62;60.15;103104.75;5015946;28;20034;-81
2022/02/28 04:36:49;;;;;;;0.20;0.20;;;;;;;2.64;59.72;103107.44;5016057;28;20026;-83
2022/02/28 04:39:15;;;;;;;0.17;0.17;;;;;;;2.61;60.30;103094.22;5016228;28;20088;-83
2022/02/28 04:41:41;;;;;;;0.10;0.10;;;;;;;2.63;59.72;103103.03;5015865;28;20380;-82
2022/02/28 04:44:08;;;;;;;0.20;0.20;;;;;;;2.65;59.50;103106.63;5016001;28;20064;-82
2022/02/28 04:46:34;;;;;;;0.10;0.10;;;;;;;2.62;60.04;103104.75;5015774;28;20509;-81
2022/02/28 04:49:00;;;;;;;0.20;0.20;;;;;;;2.67;59.99;103100.66;5015906;28;20030;-82
2022/02/28 04:51:26;;;;;;;0.20;0.20;;;;;;;2.66;60.01;103088.38;5015651;28;20036;-81
2022/02/28 04:53:52;;;;;;;0.25;0.25;;;;;;;2.68;59.75;103101.53;5015729;28;20478;-82
2022/02/28 04:56:18;;;;;;;0.30;0.30;;;;;;;2.68;59.58;103098.91;5015630;28;20041;-81
2022/02/28 04:58:45;;;;;;;0.17;0.17;;;;;;;2.68;59.61;103105.06;5015458;28;20033;-82
2022/02/28 05:01:12;;;;;;;0.10;0.10;;;;;;;2.68;59.68;103105.06;5014256;28;20037;-82
2022/02/28 05:03:38;;;;;;;0.20;0.20;;;;;;;2.65;59.92;103101.41;5015738;28;20022;-82
2022/02/28 05:06:04;;;;;;;1.98;1.88;;;;;;;2.61;60.06;103099.47;5015299;28;20041;-81
2022/02/28 05:08:30;;;;;;;0.20;0.20;;;;;;;2.64;60.05;103096.97;5015426;28;20033;-81
2022/02/28 05:10:57;;;;;;;0.20;0.20;;;;;;;2.65;59.96;103085.69;5015225;28;20037;-81
2022/02/28 05:13:23;;;;;;;0.55;0.55;;;;;;;2.65;59.57;103083.97;5015596;28;20414;-80
2022/02/28 05:15:49;;;;;;;0.20;0.20;;;;;;;2.63;59.72;103088.25;5015289;28;20465;-81
2022/02/28 05:18:16;;;;;;;0.15;0.15;;;;;;;2.59;59.99;103089.81;5015223;28;20030;-82
2022/02/28 05:20:42;;;;;;;0.20;0.20;;;;;;;2.62;60.08;103093.38;5015106;28;20068;-81
2022/02/28 05:23:08;;;;;;;0.10;0.10;;;;;;;2.58;59.81;103087.13;5014768;28;20437;-81
2022/02/28 05:25:34;;;;;;;0.20;0.20;;;;;;;2.58;59.72;103093.25;5015251;28;20034;-81
2022/02/28 05:28:00;;;;;;;0.15;0.15;;;;;;;2.58;59.71;103085.41;5015237;28;20034;-80
2022/02/28 05:30:26;;;;;;;0.20;0.20;;;;;;;2.56;59.77;103084.41;5015246;28;20044;-81
2022/02/28 05:32:52;;;;;;;0.20;0.20;;;;;;;2.53;59.73;103084.28;5015005;28;20036;-82
2022/02/28 05:35:19;;;;;;;0.15;0.15;;;;;;;2.51;59.78;103082.41;5014913;28;20022;-82
2022/02/28 05:37:45;;;;;;;0.10;0.10;;;;;;;2.51;59.81;103078.06;5015085;28;20030;-82
2022/02/28 05:40:12;;;;;;;0.20;0.20;;;;;;;2.49;60.06;103100.63;5014919;28;20531;-81
2022/02/28 05:42:39;;;;;;;0.20;0.20;;;;;;;2.46;60.01;103092.63;5014780;28;20073;-82
2022/02/28 05:45:08;;;;;;;0.20;0.20;;;;;;;2.48;59.74;103098.84;5014718;28;20036;-82
2022/02/28 05:47:34;;;;;;;0.30;0.30;;;;;;;2.47;59.91;103093.50;5015042;28;20109;-82
2022/02/28 05:50:01;;;;;;;0.20;0.20;;;;;;;2.45;60.16;103093.44;5014873;28;20038;-82
2022/02/28 05:52:27;;;;;;;0.13;0.13;;;;;;;2.43;59.81;103095.13;5000451;23;20126;-81
2022/02/28 05:54:53;;;;;;;0.20;0.20;;;;;;;2.46;59.59;103103.09;4975968;28;20044;-81
2022/02/28 05:57:19;;;;;;;0.10;0.10;;;;;;;2.45;60.05;103110.88;4975744;28;20023;-80
2022/02/28 05:59:45;;;;;;;0.17;0.17;;;;;;;2.43;59.83;103111.69;4975468;28;20034;-79
2022/02/28 06:02:11;;;;;;;0.20;0.20;;;;;;;2.41;60.20;103112.44;4975679;28;20031;-80
2022/02/28 06:04:37;;;;;;;0.20;0.20;;;;;;;2.43;59.81;103118.66;4975512;28;20039;-80
2022/02/28 06:07:03;;;;;;;0.20;0.20;;;;;;;2.41;60.16;103123.78;4974810;28;20062;-80
2022/02/28 06:09:29;;;;;;;0.20;0.20;;;;;;;2.40;60.33;103118.50;4975246;28;20031;-81
2022/02/28 06:11:56;;;;;;;0.20;0.20;;;;;;;2.38;60.06;103126.28;4974982;28;20520;-82
2022/02/28 06:14:22;;;;;;;0.10;0.10;;;;;;;2.38;59.81;103138.44;4974668;28;20118;-82
2022/02/28 06:16:48;;;;;;;0.20;0.20;;;;;;;2.36;60.07;103138.38;4975560;28;20027;-82
2022/02/28 06:19:14;;;;;;;0.20;0.20;;;;;;;2.35;59.83;103139.19;4975272;28;20031;-81
2022/02/28 06:21:40;;;;;;;0.10;0.10;;;;;;;2.34;59.58;103141.72;4974821;28;20046;-81
2022/02/28 06:24:07;;;;;;;0.10;0.10;;;;;;;2.32;59.93;103148.59;4975114;28;20071;-82
2022/02/28 06:26:34;;;;;;;0.10;0.10;;;;;;;2.32;60.00;103148.59;4974900;28;20031;-81
2022/02/28 06:29:00;;;;;;;0.13;0.13;;;;;;;2.31;60.13;103141.59;4974649;28;20035;-81
2022/02/28 06:31:26;;;;;;;0.10;0.10;;;;;;;2.28;60.48;103142.34;4974710;28;20015;-81
2022/02/28 06:33:52;;;;;;;0.10;0.10;;;;;;;2.29;60.42;103149.34;4974784;28;20494;-82
2022/02/28 06:36:18;;;;;;;0.20;0.20;;;;;;;2.32;60.11;103151.19;4974665;28;20105;-81
2022/02/28 06:38:44;;;;;;;0.13;0.13;;;;;;;2.33;60.18;103155.63;4973691;28;20050;-81
2022/02/28 06:41:10;;;;;;;0.20;0.20;;;;;;;2.33;60.24;103155.63;4974466;28;20039;-81
2022/02/28 06:43:36;;;;;;;0.10;0.10;;;;;;;2.32;60.57;103151.19;4974634;28;20035;-80
2022/02/28 06:46:03;;;;;;;0.20;0.20;;;;;;;2.33;60.20;103147.78;4968587;28;20043;-80
2022/02/28 06:48:29;;;;;;;0.20;0.20;;;;;;;2.33;60.32;103147.78;4969367;28;20034;-80
2022/02/28 06:50:57;;;;;;;0.20;0.20;;;;;;;2.32;59.96;103151.19;4974420;28;20114;-80
2022/02/28 06:53:24;;;;;;;0.20;0.20;;;;;;;2.30;60.14;103153.75;4957202;28;20380;-81
2022/02/28 06:55:53;;;;;;;0.30;0.30;;;;;;;2.30;60.46;103153.75;4974179;28;20046;-81
2022/02/28 06:58:21;;;;;;;0.20;0.20;;;;;;;2.32;60.47;103169.53;4974972;28;20042;-80
2022/02/28 07:00:50;;;;;;;1.17;1.08;;;;;;;2.36;60.27;103172.38;4974405;28;20126;-80
2022/02/28 07:03:16;;;;;;;0.20;0.20;;;;;;;2.35;60.59;103173.19;4957542;28;20525;-80
2022/02/28 07:05:47;;;;;;;0.10;0.10;;;;;;;2.39;60.64;103161.16;4973932;28;20035;-80
2022/02/28 07:08:17;;;;;;;0.20;0.20;;;;;;;2.42;60.22;103169.19;4974442;28;20035;-80
2022/02/28 07:10:45;;;;;;;0.17;0.17;;;;;;;2.46;60.45;103168.53;4974292;28;20503;-82
2022/02/28 07:13:12;;;;;;;0.20;0.20;;;;;;;2.50;60.32;103174.81;4974533;28;20490;-81
2022/02/28 07:15:43;;;;;;;0.10;0.10;;;;;;;2.57;60.51;103182.16;4978177;28;20394;-81
2022/02/28 07:18:11;;;;;;;0.10;0.10;;;;;;;2.57;60.12;103179.53;4993876;28;20022;-80
2022/02/28 07:23:13;;;;;;;0.13;0.13;;;;;;;2.62;60.41;103179.75;4971336;28;20051;-82
2022/02/28 07:25:40;;;;;;;0.20;0.20;;;;;;;2.67;60.28;103178.28;4974241;28;20034;-82
2022/02/28 07:28:06;;;;;;;0.20;0.20;;;;;;;2.70;60.27;103188.91;4978255;28;20104;-83
2022/02/28 07:30:32;;;;;;;0.10;0.10;;;;;;;2.73;60.02;103189.06;4976547;28;20470;-82
2022/02/28 07:32:58;;;;;;;0.20;0.20;;;;;;;2.75;60.11;103187.41;4977827;28;20035;-81
2022/02/28 07:35:25;;;;;;;0.20;0.20;;;;;;;2.79;60.11;103184.16;4978170;28;20035;-83
2022/02/28 07:37:51;;;;;;;0.28;0.28;;;;;;;2.85;60.28;103194.88;4976884;28;20180;-81
2022/02/28 07:40:17;;;;;;;0.10;0.10;;;;;;;2.92;60.04;103196.13;4977996;28;20038;-82
2022/02/28 07:42:43;;;;;;;4.30;3.10;;;;;;;2.97;60.00;103197.25;4977799;28;20471;-82
2022/02/28 07:45:11;;;;;;;0.10;0.10;;;;;;;3.03;60.03;103202.78;4977365;28;20097;-82
2022/02/28 07:47:37;;;;;;;0.73;0.35;;;;;;;3.06;59.95;103192.44;4952447;28;20125;-83
2022/02/28 07:50:04;;;;;;;0.20;0.20;;;;;;;3.14;59.84;103200.69;4977978;28;20042;-82
2022/02/28 07:52:31;;;;;;;0.10;0.10;;;;;;;3.15;59.94;103199.84;4977659;28;20038;-82
2022/02/28 07:54:57;;;;;;;0.20;0.20;;;;;;;3.24;59.62;103199.41;4977754;28;20054;-82
2022/02/28 07:57:23;;;;;;;0.10;0.10;;;;;;;3.30;59.57;103198.81;4977474;28;20031;-80
2022/02/28 07:59:49;;;;;;;0.10;0.10;;;;;;;3.35;59.62;103202.53;4977000;28;20085;-82
2022/02/28 08:02:15;;;;;;;0.10;0.10;;;;;;;3.43;59.49;103201.19;4977293;28;20034;-82
2022/02/28 08:04:41;;;;;;;0.10;0.10;;;;;;;3.51;59.32;103212.03;4977316;28;20537;-83
2022/02/28 08:07:07;;;;;;;0.20;0.20;;;;;;;3.56;59.88;103214.06;4977306;28;20034;-83
2022/02/28 08:09:34;;;;;;;0.10;0.10;;;;;;;3.62;59.43;103208.19;4977468;28;20113;-82
2022/02/28 08:12:01;;;;;;;0.10;0.10;;;;;;;3.70;59.50;103211.16;4977284;28;20057;-81
2022/02/28 08:14:27;;;;;;;1.75;1.50;;;;;;;3.80;58.98;103208.16;4977431;28;20031;-83
2022/02/28 08:16:53;;;;;;;0.20;0.20;;;;;;;3.88;58.59;103211.13;4977036;28;20475;-82
2022/02/28 08:19:19;;;;;;;0.10;0.10;;;;;;;3.88;58.53;103201.53;4977444;28;20065;-82
2022/02/28 08:21:45;;;;;;;0.10;0.10;;;;;;;4.00;58.49;103201.19;4977062;28;20386;-82
2022/02/28 08:24:12;;;;;;;0.20;0.20;;;;;;;4.09;58.02;103194.56;4977066;28;20030;-82
2022/02/28 08:26:38;;;;;;;0.10;0.10;;;;;;;4.08;58.00;103198.03;4976896;28;20482;-82
2022/02/28 08:29:04;;;;;;;0.10;0.10;;;;;;;4.18;57.64;103198.50;4976579;28;20085;-82
2022/02/28 08:31:30;;;;;;;0.50;0.50;;;;;;;4.28;57.70;103196.28;4976661;28;20039;-83
2022/02/28 08:33:57;;;;;;;0.10;0.10;;;;;;;4.39;56.97;103192.41;4975607;28;20038;-83
2022/02/28 08:36:23;;;;;;;0.10;0.10;;;;;;;4.46;57.00;103186.59;4976517;28;20035;-82
2022/02/28 08:38:51;;;;;;;0.20;0.20;;;;;;;4.51;56.70;103185.06;4976892;28;20070;-82
2022/02/28 08:41:18;;;;;;;0.10;0.10;;;;;;;4.63;57.02;103178.53;4975808;28;20027;-81
2022/02/28 08:43:44;;;;;;;0.10;0.10;;;;;;;4.76;56.87;103179.94;4974765;28;20390;-82
2022/02/28 08:46:11;;;;;;;0.20;0.20;;;;;;;4.75;55.99;103173.78;4974429;28;20038;-82
2022/02/28 08:48:37;;;;;;;0.10;0.10;;;;;;;4.90;55.80;103175.25;4973207;28;20034;-82
2022/02/28 08:51:03;;;;;;;0.10;0.10;;;;;;;5.02;55.99;103179.28;4989103;23;20027;-80
2022/02/28 08:53:29;;;;;;;0.17;0.17;;;;;;;5.06;55.67;103179.41;4978967;28;20049;-81
2022/02/28 08:55:56;;;;;;;0.17;0.17;;;;;;;5.18;55.55;103172.94;4975453;28;20046;-81
2022/02/28 08:58:23;;;;;;;0.10;0.10;;;;;;;5.22;55.71;103165.16;4976046;28;20023;-81
2022/02/28 09:00:50;;;;;;;0.10;0.10;;;;;;;5.30;54.53;103163.72;4975795;28;20025;-81
2022/02/28 09:03:16;;;;;;;0.13;0.13;;;;;;;5.41;54.05;103162.41;4973555;28;20026;-81
2022/02/28 09:05:42;;;;;;;0.10;0.10;;;;;;;5.52;53.61;103165.47;4975889;28;20023;-81
2022/02/28 09:08:08;;;;;;;0.10;0.10;;;;;;;5.63;53.32;103153.63;4975527;28;20106;-81
2022/02/28 09:10:35;;;;;;;0.15;0.15;;;;;;;5.70;52.38;103143.31;4975027;28;20027;-80
2022/02/28 09:13:01;;;;;;;0.10;0.10;;;;;;;5.72;52.18;103152.16;4974406;28;20063;-82
2022/02/28 09:15:27;;;;;;;0.10;0.10;;;;;;;5.96;52.49;103129.38;4975034;28;20023;-81
2022/02/28 09:17:54;;;;;;;0.17;0.17;;;;;;;6.08;51.93;103131.59;4974151;28;20061;-80
2022/02/28 09:20:20;;;;;;;0.10;0.10;;;;;;;6.11;52.43;103136.94;4974980;28;20027;-80
2022/02/28 09:22:46;;;;;;;0.10;0.10;;;;;;;6.24;51.73;103134.75;4974428;28;20513;-80
2022/02/28 09:25:12;;;;;;;0.20;0.20;;;;;;;6.36;51.33;103132.56;4974665;28;20031;-81
2022/02/28 09:27:41;;;;;;;0.75;0.75;;;;;;;6.53;51.22;103140.13;4975672;28;20034;-80
2022/02/28 09:30:08;;;;;;;0.17;0.17;;;;;;;6.57;50.79;103139.41;4975741;28;20410;-82
2022/02/28 09:32:35;;;;;;;0.10;0.10;;;;;;;6.73;50.28;103139.06;4974132;28;20026;-81
2022/02/28 09:35:02;;;;;;;0.17;0.17;;;;;;;6.93;49.95;103134.44;4961460;28;20046;-81
2022/02/28 09:37:29;;;;;;;0.13;0.13;;;;;;;7.06;49.85;103134.81;4973948;28;20027;-82
2022/02/28 09:39:55;;;;;;;0.10;0.10;;;;;;;7.15;49.36;103126.31;4973599;28;20034;-81
2022/02/28 09:42:21;;;;;;;0.57;0.57;;;;;;;7.21;48.43;103134.41;4973754;28;20035;-82
2022/02/28 09:44:47;;;;;;;0.10;0.10;;;;;;;7.26;48.57;103133.72;4973528;28;20033;-82
2022/02/28 09:47:15;;;;;;;0.57;0.57;;;;;;;7.38;49.29;103125.25;4974210;28;20494;-82
2022/02/28 09:49:41;;;;;;;0.10;0.10;;;;;;;7.41;46.53;103125.38;4971625;28;20042;-82
2022/02/28 09:52:08;;;;;;;0.10;0.10;;;;;;;7.53;47.75;103119.53;4973721;28;20394;-82
2022/02/28 09:54:37;;;;;;;0.10;0.10;;;;;;;7.68;47.34;103126.13;4973892;28;20069;-83
2022/02/28 09:57:08;;;;;;;0.20;0.20;;;;;;;7.81;48.08;103130.88;4973996;28;20459;-82
2022/02/28 09:59:36;;;;;;;1.65;1.55;;;;;;;7.87;46.21;103125.78;4974739;28;20033;-81
2022/02/28 10:02:03;;;;;;;0.10;0.10;;;;;;;7.90;45.83;103122.34;4974911;28;20097;-81
2022/02/28 10:04:29;;;;;;;0.57;0.57;;;;;;;8.00;45.72;103121.75;4974394;28;20379;-81
2022/02/28 10:06:55;;;;;;;0.10;0.10;;;;;;;8.14;45.46;103115.94;4975337;28;20038;-82
2022/02/28 10:09:23;;;;;;;0.00;0.00;;;;;;;8.29;45.87;103129.56;4974599;28;20037;-82
2022/02/28 10:11:51;;;;;;;0.10;0.10;;;;;;;8.39;44.79;103131.56;4974509;28;20027;-79
2022/02/28 10:14:18;;;;;;;2.28;1.58;;;;;;;8.43;44.87;103130.78;4978922;28;20034;-82
2022/02/28 10:16:47;;;;;;;1.20;1.10;;;;;;;8.64;44.60;103131.34;4974647;28;20055;-82
2022/02/28 10:19:21;;;;;;;0.08;0.08;;;;;;;8.74;43.91;103121.03;4974701;28;20035;-82
2022/02/28 10:24:38;;;;;;;0.10;0.10;;;;;;;9.13;44.19;103121.03;5090853;27;20414;-84
2022/02/28 10:27:06;;;;;;;0.00;0.00;;;;;;;9.06;42.75;103122.66;5070458;28;20086;-82
2022/02/28 10:29:38;;;;;;;0.10;0.10;;;;;;;9.18;43.48;103122.94;5069795;28;20036;-82
2022/02/28 10:32:07;;;;;;;0.10;0.10;;;;;;;9.37;44.08;103118.03;5059321;28;20112;-82
2022/02/28 10:35:59;;;;;;;0.10;0.10;;;;;;;9.45;43.90;103116.47;5050085;28;20033;-82
2022/02/28 10:37:21;;;;;;;0.10;0.10;;;;;;;9.59;44.00;103122.03;5050369;28;20392;-83
2022/02/28 10:39:59;;;;;;;0.10;0.10;;;;;;;9.70;42.51;103120.50;5048872;28;20119;-82
2022/02/28 10:42:42;;;;;;;0.00;0.00;;;;;;;9.75;42.72;103117.06;5043429;28;20097;-82
2022/02/28 10:45:25;;;;;;;0.00;0.00;;;;;;;10.00;43.36;103119.31;5046479;28;20044;-82
2022/02/28 10:47:53;;;;;;;0.10;0.10;;;;;;;10.01;42.21;103115.81;5050170;28;20096;-83
2022/02/28 10:50:38;;;;;;;0.05;0.05;;;;;;;10.22;41.07;103122.38;5049986;28;20021;-82
2022/02/28 10:53:11;;;;;;;0.10;0.10;;;;;;;10.24;41.07;103133.88;5049737;28;20090;-82
2022/02/28 10:55:37;;;;;;;;;;;;;;;10.43;40.84;103128.94;5050274;28;20495;-82
2022/02/28 10:58:09;;;;;;;0.20;0.20;;;;;;;10.48;41.64;103127.25;5049983;28;19913;-82
2022/02/28 11:03:46;;;;;;;0.30;0.30;;;;;;;10.72;40.33;103125.91;5090641;28;20463;-84
2022/02/28 11:06:23;;;;;;;0.10;0.10;;;;;;;10.77;40.74;103129.53;5057088;28;20089;-81
2022/02/28 11:08:49;;;;;;;0.25;0.25;;;;;;;10.84;39.23;103126.06;5051041;28;20108;-82
2022/02/28 11:11:16;;;;;;;0.52;0.52;;;;;;;10.90;40.43;103123.50;5044314;28;20091;-82
2022/02/28 11:13:43;;;;;;;3.55;1.75;;;;;;;10.95;39.83;103127.16;5046591;28;20037;-80
2022/02/28 11:16:13;;;;;;;1.40;1.30;;;;;;;11.03;39.59;103118.41;5048535;28;20037;-82
2022/02/28 11:18:40;;;;;;;0.10;0.10;;;;;;;11.05;39.55;103127.28;5036927;28;20029;-83
2022/02/28 11:21:07;;;;;;;0.20;0.20;;;;;;;11.17;39.29;103117.72;5035522;28;20034;-83
2022/02/28 11:23:44;;;;;;;0.10;0.10;;;;;;;11.32;38.04;103103.78;5029798;28;20056;-81
2022/02/28 11:26:10;;;;;;;0.10;0.10;;;;;;;11.38;38.91;103110.94;5029736;28;20053;-81
2022/02/28 11:28:37;;;;;;;0.05;0.05;;;;;;;11.51;38.69;103111.97;5029762;28;20072;-80
2022/02/28 11:31:06;;;;;;;0.00;0.00;;;;;;;11.63;39.17;103104.16;5042834;28;20120;-82
2022/02/28 11:33:33;;;;;;;0.10;0.10;;;;;;;11.75;38.75;103105.19;5042794;28;20072;-81
2022/02/28 11:36:00;;;;;;;0.05;0.05;;;;;;;11.93;39.02;103096.53;5029188;28;20380;-83
2022/02/28 11:41:09;;;;;;;0.30;0.30;;;;;;;12.09;38.86;103090.53;5103201;27;20404;-81
2022/02/28 11:43:40;;;;;;;0.10;0.10;;;;;;;12.24;38.42;103091.56;5089116;28;20395;-79